createdAt,value
2022-11-16T00:00:19.252Z,8.90
2022-11-16T00:01:19.252Z,13.80
2022-11-16T00:02:19.253Z,12.50
2022-11-16T00:03:19.222Z,11.90
2022-11-16T00:04:19.227Z,13.30
2022-11-16T00:05:22.007Z,11.70
2022-11-16T00:06:20.189Z,14.90
2022-11-16T00:07:19.272Z,12.30
2022-11-16T00:08:19.163Z,11.50
2022-11-16T00:09:19.179Z,12.10
2022-11-16T00:10:19.144Z,12.50
2022-11-16T00:11:19.145Z,15.50
2022-11-16T00:12:19.130Z,11.90
2022-11-16T00:13:19.124Z,11.70
2022-11-16T00:14:19.123Z,12.40
2022-11-16T00:15:19.102Z,12.80
2022-11-16T00:16:19.085Z,19.60
2022-11-16T00:17:19.087Z,19.70
2022-11-16T00:18:19.063Z,20.50
2022-11-16T00:19:19.080Z,22.60
2022-11-16T00:20:19.037Z,23.60
2022-11-16T00:21:19.035Z,25.20
2022-11-16T00:22:19.018Z,27.30
2022-11-16T00:23:19.017Z,27.40
2022-11-16T00:24:19.036Z,28.00
2022-11-16T00:25:19.007Z,24.10
2022-11-16T00:26:18.982Z,22.80
2022-11-16T00:27:18.969Z,21.50
2022-11-16T00:28:18.956Z,17.00
2022-11-16T00:29:18.971Z,17.30
2022-11-16T00:30:18.937Z,16.90
2022-11-16T00:31:18.938Z,14.50
2022-11-16T00:32:18.912Z,12.70
2022-11-16T00:33:18.909Z,14.20
2022-11-16T00:34:18.912Z,15.90
2022-11-16T00:35:18.884Z,15.30
2022-11-16T00:36:18.874Z,12.90
2022-11-16T00:37:18.862Z,15.10
2022-11-16T00:38:18.852Z,12.60
2022-11-16T00:39:18.865Z,10.80
2022-11-16T00:40:18.833Z,11.80
2022-11-16T00:41:18.825Z,18.20
2022-11-16T00:42:18.810Z,16.80
2022-11-16T00:43:18.823Z,10.20
2022-11-16T00:44:18.820Z,11.70
2022-11-16T00:45:18.785Z,14.40
2022-11-16T00:46:18.766Z,12.30
2022-11-16T00:47:18.755Z,11.30
2022-11-16T00:48:18.746Z,14.40
2022-11-16T00:49:18.757Z,12.10
2022-11-16T00:50:18.723Z,12.00
2022-11-16T00:51:18.716Z,13.30
2022-11-16T00:52:18.708Z,16.00
2022-11-16T00:53:18.695Z,12.00
2022-11-16T00:54:18.697Z,10.80
2022-11-16T00:55:18.677Z,14.90
2022-11-16T00:56:18.658Z,12.40
2022-11-16T00:57:18.655Z,14.90
2022-11-16T00:58:18.638Z,13.00
2022-11-16T00:59:18.656Z,12.40
2022-11-16T01:00:18.617Z,11.40
2022-11-16T01:01:18.682Z,12.10
2022-11-16T01:02:18.598Z,14.20
2022-11-16T01:03:18.594Z,14.80
2022-11-16T01:04:18.599Z,12.00
2022-11-16T01:05:18.575Z,18.60
2022-11-16T01:06:18.562Z,13.20
2022-11-16T01:07:18.597Z,17.10
2022-11-16T01:08:18.542Z,13.30
2022-11-16T01:09:18.543Z,13.60
2022-11-16T01:10:18.522Z,15.60
2022-11-16T01:11:18.493Z,11.50
2022-11-16T01:12:18.502Z,15.10
2022-11-16T01:13:18.475Z,14.90
2022-11-16T01:14:18.493Z,20.20
2022-11-16T01:15:18.455Z,21.60
2022-11-16T01:16:18.456Z,19.70
2022-11-16T01:17:18.445Z,11.70
2022-11-16T01:18:18.434Z,16.40
2022-11-16T01:19:18.433Z,13.50
2022-11-16T01:20:18.425Z,9.60
2022-11-16T01:21:18.400Z,15.70
2022-11-16T01:22:18.386Z,11.70
2022-11-16T01:23:18.380Z,13.10
2022-11-16T01:24:18.384Z,14.20
2022-11-16T01:25:18.356Z,10.20
2022-11-16T01:26:18.359Z,12.20
2022-11-16T01:27:18.328Z,14.00
2022-11-16T01:28:18.332Z,10.00
2022-11-16T01:29:18.328Z,16.50
2022-11-16T01:30:18.307Z,14.10
2022-11-16T01:31:18.292Z,12.00
2022-11-16T01:32:18.280Z,13.30
2022-11-16T01:33:18.271Z,15.30
2022-11-16T01:34:18.280Z,15.10
2022-11-16T01:35:18.263Z,15.00
2022-11-16T01:36:18.243Z,13.40
2022-11-16T01:37:18.231Z,12.40
2022-11-16T01:38:18.243Z,13.80
2022-11-16T01:39:18.222Z,14.90
2022-11-16T01:40:18.203Z,15.70
2022-11-16T01:41:18.192Z,15.00
2022-11-16T01:42:18.184Z,16.40
2022-11-16T01:43:18.165Z,12.60
2022-11-16T01:44:18.174Z,14.10
2022-11-16T01:45:18.144Z,13.20
2022-11-16T01:46:18.134Z,16.80
2022-11-16T01:47:18.131Z,12.70
2022-11-16T01:48:18.154Z,13.50
2022-11-16T01:49:18.122Z,20.00
2022-11-16T01:50:18.096Z,13.90
2022-11-16T01:51:18.084Z,15.90
2022-11-16T01:52:18.086Z,15.20
2022-11-16T01:53:18.057Z,13.60
2022-11-16T01:54:18.056Z,14.70
2022-11-16T01:55:18.058Z,11.60
2022-11-16T01:56:18.030Z,17.60
2022-11-16T01:57:18.019Z,16.70
2022-11-16T01:58:18.009Z,15.50
2022-11-16T01:59:17.998Z,15.40
2022-11-16T02:00:18.010Z,16.90
2022-11-16T02:01:18.088Z,15.20
2022-11-16T02:02:17.970Z,14.90
2022-11-16T02:03:17.958Z,16.40
2022-11-16T02:04:17.950Z,15.10
2022-11-16T02:05:17.951Z,17.10
2022-11-16T02:06:17.924Z,16.20
2022-11-16T02:07:17.983Z,15.50
2022-11-16T02:08:17.912Z,15.00
2022-11-16T02:09:17.892Z,14.70
2022-11-16T02:10:17.909Z,15.40
2022-11-16T02:11:17.874Z,18.20
2022-11-16T02:12:17.872Z,23.70
2022-11-16T02:13:17.853Z,15.80
2022-11-16T02:14:17.845Z,19.50
2022-11-16T02:15:17.843Z,17.00
2022-11-16T02:16:17.824Z,18.00
2022-11-16T02:17:17.814Z,17.10
2022-11-16T02:18:17.803Z,14.00
2022-11-16T02:19:17.787Z,18.80
2022-11-16T02:20:17.803Z,16.10
2022-11-16T02:21:17.767Z,16.20
2022-11-16T02:22:17.764Z,18.20
2022-11-16T02:23:17.754Z,16.00
2022-11-16T02:24:17.747Z,14.50
2022-11-16T02:25:17.747Z,18.50
2022-11-16T02:26:17.717Z,15.10
2022-11-16T02:27:17.709Z,20.80
2022-11-16T02:28:17.704Z,13.70
2022-11-16T02:29:17.687Z,17.90
2022-11-16T02:30:17.695Z,14.70
2022-11-16T02:31:17.670Z,13.80
2022-11-16T02:32:17.659Z,15.10
2022-11-16T02:33:17.649Z,18.20
2022-11-16T02:34:17.636Z,15.50
2022-11-16T02:35:17.640Z,15.00
2022-11-16T02:36:17.617Z,17.80
2022-11-16T02:37:17.599Z,16.90
2022-11-16T02:38:17.589Z,16.40
2022-11-16T02:39:17.578Z,19.50
2022-11-16T02:40:17.593Z,15.40
2022-11-16T02:41:17.566Z,15.50
2022-11-16T02:42:17.570Z,15.80
2022-11-16T02:43:17.541Z,16.80
2022-11-16T02:44:17.540Z,17.10
2022-11-16T02:45:17.538Z,16.80
2022-11-16T02:46:17.511Z,16.00
2022-11-16T02:47:17.495Z,15.40
2022-11-16T02:48:17.491Z,14.60
2022-11-16T02:49:17.474Z,19.50
2022-11-16T02:50:17.495Z,18.40
2022-11-16T02:51:17.456Z,16.40
2022-11-16T02:52:17.460Z,19.10
2022-11-16T02:53:17.433Z,20.30
2022-11-16T02:54:17.438Z,14.00
2022-11-16T02:55:17.427Z,18.10
2022-11-16T02:56:17.406Z,15.20
2022-11-16T02:57:17.399Z,12.90
2022-11-16T02:58:17.388Z,17.50
2022-11-16T02:59:17.855Z,14.40
2022-11-16T03:00:17.386Z,17.60
2022-11-16T03:01:17.418Z,18.50
2022-11-16T03:02:17.347Z,21.20
2022-11-16T03:03:17.328Z,15.70
2022-11-16T03:04:17.339Z,20.20
2022-11-16T03:05:17.327Z,16.00
2022-11-16T03:06:17.302Z,15.20
2022-11-16T03:07:17.346Z,15.70
2022-11-16T03:08:17.279Z,15.30
2022-11-16T03:09:17.269Z,17.30
2022-11-16T03:10:17.289Z,14.90
2022-11-16T03:11:17.247Z,19.80
2022-11-16T03:12:17.242Z,18.20
2022-11-16T03:13:17.231Z,18.60
2022-11-16T03:14:17.222Z,19.10
2022-11-16T03:15:17.234Z,17.90
2022-11-16T03:16:17.200Z,17.30
2022-11-16T03:17:17.183Z,14.20
2022-11-16T03:18:17.180Z,19.30
2022-11-16T03:19:17.163Z,16.40
2022-11-16T03:20:17.173Z,16.90
2022-11-16T03:21:17.134Z,14.70
2022-11-16T03:22:17.148Z,15.10
2022-11-16T03:23:17.134Z,19.10
2022-11-16T03:24:17.115Z,16.50
2022-11-16T03:25:17.116Z,17.10
2022-11-16T03:26:17.094Z,20.90
2022-11-16T03:27:17.075Z,15.50
2022-11-16T03:28:17.086Z,17.70
2022-11-16T03:29:17.056Z,18.50
2022-11-16T03:30:20.094Z,18.20
2022-11-16T03:31:18.027Z,16.00
2022-11-16T03:32:17.037Z,20.40
2022-11-16T03:33:17.015Z,19.70
2022-11-16T03:34:17.008Z,22.90
2022-11-16T03:35:17.017Z,25.10
2022-11-16T03:36:16.988Z,27.80
2022-11-16T03:37:16.990Z,23.10
2022-11-16T03:38:16.960Z,21.10
2022-11-16T03:39:16.958Z,17.80
2022-11-16T03:40:16.960Z,17.30
2022-11-16T03:41:16.938Z,19.00
2022-11-16T03:42:16.919Z,18.10
2022-11-16T03:43:16.911Z,22.10
2022-11-16T03:44:16.893Z,18.50
2022-11-16T03:45:16.913Z,15.70
2022-11-16T03:46:16.879Z,20.80
2022-11-16T03:47:16.875Z,22.10
2022-11-16T03:48:16.860Z,16.80
2022-11-16T03:49:16.854Z,21.00
2022-11-16T03:50:16.853Z,19.00
2022-11-16T03:51:16.833Z,17.80
2022-11-16T03:52:16.827Z,16.30
2022-11-16T03:53:16.819Z,20.00
2022-11-16T03:54:16.806Z,18.70
2022-11-16T03:55:16.815Z,18.80
2022-11-16T03:56:16.773Z,23.00
2022-11-16T03:57:16.766Z,21.10
2022-11-16T03:58:16.756Z,24.90
2022-11-16T03:59:16.756Z,21.10
2022-11-16T04:00:16.749Z,21.30
2022-11-16T04:01:16.793Z,22.90
2022-11-16T04:02:16.715Z,19.70
2022-11-16T04:03:16.707Z,26.90
2022-11-16T04:04:16.696Z,19.70
2022-11-16T04:05:16.708Z,25.90
2022-11-16T04:06:16.672Z,21.30
2022-11-16T04:07:16.722Z,20.70
2022-11-16T04:08:16.658Z,20.80
2022-11-16T04:09:16.648Z,19.30
2022-11-16T04:10:16.651Z,19.20
2022-11-16T04:11:16.621Z,19.10
2022-11-16T04:12:16.617Z,20.60
2022-11-16T04:13:16.600Z,21.50
2022-11-16T04:14:16.591Z,20.50
2022-11-16T04:15:16.601Z,18.30
2022-11-16T04:16:16.561Z,19.00
2022-11-16T04:17:16.560Z,20.30
2022-11-16T04:18:16.541Z,24.80
2022-11-16T04:19:16.541Z,16.50
2022-11-16T04:20:16.544Z,20.50
2022-11-16T04:21:16.521Z,21.30
2022-11-16T04:22:16.505Z,20.60
2022-11-16T04:23:16.518Z,20.90
2022-11-16T04:24:16.483Z,18.80
2022-11-16T04:25:16.493Z,19.30
2022-11-16T04:26:16.464Z,18.20
2022-11-16T04:27:16.458Z,17.40
2022-11-16T04:28:16.513Z,19.90
2022-11-16T04:29:16.436Z,20.30
2022-11-16T04:30:16.434Z,19.60
2022-11-16T04:31:16.417Z,20.30
2022-11-16T04:32:16.404Z,16.50
2022-11-16T04:33:16.396Z,18.50
2022-11-16T04:34:16.377Z,20.50
2022-11-16T04:35:16.398Z,17.50
2022-11-16T04:36:20.456Z,16.70
2022-11-16T04:37:16.359Z,17.70
2022-11-16T04:38:16.336Z,13.70
2022-11-16T04:39:16.328Z,17.40
2022-11-16T04:40:16.331Z,20.60
2022-11-16T04:41:16.311Z,22.50
2022-11-16T04:42:16.308Z,20.80
2022-11-16T04:43:16.291Z,21.60
2022-11-16T04:44:16.280Z,19.00
2022-11-16T04:45:16.291Z,19.80
2022-11-16T04:46:16.262Z,20.00
2022-11-16T04:47:16.251Z,19.00
2022-11-16T04:48:16.232Z,21.00
2022-11-16T04:49:16.223Z,23.30
2022-11-16T04:50:16.221Z,22.20
2022-11-16T04:51:16.223Z,22.50
2022-11-16T04:52:16.184Z,28.30
2022-11-16T04:53:16.184Z,27.70
2022-11-16T04:54:16.174Z,24.70
2022-11-16T04:55:16.164Z,33.00
2022-11-16T04:56:16.163Z,26.50
2022-11-16T04:57:16.146Z,26.10
2022-11-16T04:58:16.147Z,20.60
2022-11-16T04:59:16.123Z,18.30
2022-11-16T05:00:16.126Z,25.10
2022-11-16T05:01:16.156Z,21.50
2022-11-16T05:02:16.089Z,26.40
2022-11-16T05:03:16.118Z,22.00
2022-11-16T05:04:16.058Z,21.70
2022-11-16T05:05:16.064Z,20.20
2022-11-16T05:06:16.059Z,22.00
2022-11-16T05:07:16.144Z,24.60
2022-11-16T05:08:16.029Z,23.60
2022-11-16T05:09:16.050Z,25.70
2022-11-16T05:10:16.002Z,20.40
2022-11-16T05:11:16.011Z,19.10
2022-11-16T05:12:15.981Z,20.40
2022-11-16T05:13:15.980Z,22.70
2022-11-16T05:14:15.961Z,19.70
2022-11-16T05:15:15.961Z,21.30
2022-11-16T05:16:15.961Z,21.20
2022-11-16T05:17:15.932Z,20.40
2022-11-16T05:18:15.953Z,19.70
2022-11-16T05:19:15.916Z,21.90
2022-11-16T05:20:15.908Z,18.60
2022-11-16T05:21:15.917Z,21.00
2022-11-16T05:22:15.879Z,23.20
2022-11-16T05:23:16.038Z,16.70
2022-11-16T05:24:15.856Z,18.40
2022-11-16T05:25:15.856Z,19.60
2022-11-16T05:26:15.855Z,21.90
2022-11-16T05:27:15.836Z,23.10
2022-11-16T05:28:15.817Z,24.60
2022-11-16T05:29:15.808Z,22.10
2022-11-16T05:30:15.829Z,23.80
2022-11-16T05:31:15.810Z,27.00
2022-11-16T05:32:15.776Z,25.90
2022-11-16T05:33:15.778Z,25.60
2022-11-16T05:34:15.749Z,25.40
2022-11-16T05:35:15.748Z,25.10
2022-11-16T05:36:15.748Z,21.20
2022-11-16T05:37:15.728Z,23.10
2022-11-16T05:38:15.710Z,20.20
2022-11-16T05:39:15.707Z,22.60
2022-11-16T05:40:15.688Z,22.90
2022-11-16T05:41:15.699Z,20.20
2022-11-16T05:42:15.677Z,28.10
2022-11-16T05:43:15.666Z,22.40
2022-11-16T05:44:15.653Z,26.50
2022-11-16T05:45:19.867Z,21.00
2022-11-16T05:46:16.638Z,23.80
2022-11-16T05:47:15.623Z,20.30
2022-11-16T05:48:15.608Z,25.40
2022-11-16T05:49:15.600Z,22.60
2022-11-16T05:50:15.583Z,27.50
2022-11-16T05:51:15.596Z,24.80
2022-11-16T05:52:15.564Z,25.40
2022-11-16T05:53:15.564Z,27.00
2022-11-16T05:54:15.542Z,26.00
2022-11-16T05:55:15.535Z,22.80
2022-11-16T05:56:15.565Z,23.70
2022-11-16T05:57:15.515Z,26.20
2022-11-16T05:58:15.496Z,26.10
2022-11-16T05:59:16.740Z,27.80
2022-11-16T06:00:15.484Z,23.30
2022-11-16T06:01:15.496Z,27.20
2022-11-16T06:02:15.457Z,25.80
2022-11-16T06:03:15.486Z,25.40
2022-11-16T06:04:15.451Z,25.20
2022-11-16T06:05:15.457Z,25.00
2022-11-16T06:06:15.438Z,25.90
2022-11-16T06:07:15.493Z,26.70
2022-11-16T06:08:15.407Z,27.70
2022-11-16T06:09:15.389Z,29.40
2022-11-16T06:10:15.370Z,24.60
2022-11-16T06:11:15.388Z,27.00
2022-11-16T06:12:15.352Z,27.40
2022-11-16T06:13:15.359Z,28.50
2022-11-16T06:14:15.332Z,31.90
2022-11-16T06:15:15.331Z,29.90
2022-11-16T06:16:15.330Z,29.50
2022-11-16T06:17:15.310Z,27.80
2022-11-16T06:18:15.292Z,24.00
2022-11-16T06:19:15.294Z,25.30
2022-11-16T06:20:15.282Z,27.30
2022-11-16T06:21:15.282Z,24.50
2022-11-16T06:22:15.253Z,24.90
2022-11-16T06:23:15.245Z,22.90
2022-11-16T06:24:15.284Z,23.80
2022-11-16T06:25:15.234Z,26.10
2022-11-16T06:26:15.232Z,27.50
2022-11-16T06:27:15.266Z,26.80
2022-11-16T06:28:15.192Z,30.00
2022-11-16T06:29:15.184Z,28.90
2022-11-16T06:30:15.165Z,31.90
2022-11-16T06:31:15.145Z,29.00
2022-11-16T06:32:15.104Z,27.00
2022-11-16T06:33:15.087Z,26.00
2022-11-16T06:34:15.076Z,27.60
2022-11-16T06:35:15.068Z,29.00
2022-11-16T06:36:15.118Z,26.80
2022-11-16T06:37:15.100Z,30.00
2022-11-16T06:38:15.086Z,29.40
2022-11-16T06:39:15.077Z,30.70
2022-11-16T06:40:15.067Z,27.50
2022-11-16T06:41:15.031Z,25.40
2022-11-16T06:42:14.991Z,30.40
2022-11-16T06:43:14.994Z,28.90
2022-11-16T06:44:14.970Z,29.50
2022-11-16T06:45:14.961Z,27.10
2022-11-16T06:46:14.962Z,26.80
2022-11-16T06:47:14.941Z,27.10
2022-11-16T06:48:14.922Z,28.10
2022-11-16T06:49:15.312Z,27.00
2022-11-16T06:50:14.921Z,30.60
2022-11-16T06:51:14.924Z,27.60
2022-11-16T06:52:14.891Z,30.20
2022-11-16T06:53:14.892Z,32.80
2022-11-16T06:54:14.863Z,28.80
2022-11-16T06:55:14.862Z,32.30
2022-11-16T06:56:14.862Z,25.70
2022-11-16T06:57:14.833Z,27.10
2022-11-16T06:58:14.835Z,26.80
2022-11-16T06:59:14.815Z,26.80
2022-11-16T07:00:14.798Z,30.00
2022-11-16T07:01:14.848Z,30.90
2022-11-16T07:02:14.821Z,27.30
2022-11-16T07:03:14.776Z,28.10
2022-11-16T07:04:14.765Z,27.70
2022-11-16T07:05:14.749Z,27.80
2022-11-16T07:06:14.758Z,24.90
2022-11-16T07:07:14.789Z,28.80
2022-11-16T07:08:14.730Z,29.90
2022-11-16T07:09:14.709Z,24.70
2022-11-16T07:10:14.695Z,27.00
2022-11-16T07:11:14.709Z,26.00
2022-11-16T07:12:14.679Z,24.60
2022-11-16T07:13:14.669Z,27.80
2022-11-16T07:14:14.651Z,26.40
2022-11-16T07:15:14.652Z,28.40
2022-11-16T07:16:14.652Z,29.20
2022-11-16T07:17:14.639Z,30.60
2022-11-16T07:18:14.613Z,29.10
2022-11-16T07:19:14.615Z,26.30
2022-11-16T07:20:14.593Z,30.40
2022-11-16T07:21:14.607Z,30.90
2022-11-16T07:22:14.572Z,26.30
2022-11-16T07:23:14.762Z,27.20
2022-11-16T07:24:14.574Z,24.60
2022-11-16T07:25:14.543Z,24.20
2022-11-16T07:26:14.582Z,24.70
2022-11-16T07:27:14.524Z,24.90
2022-11-16T07:28:14.504Z,29.80
2022-11-16T07:29:14.523Z,28.20
2022-11-16T07:30:14.485Z,25.60
2022-11-16T07:31:14.481Z,25.00
2022-11-16T07:32:14.526Z,22.50
2022-11-16T07:33:14.463Z,26.00
2022-11-16T07:34:14.444Z,24.10
2022-11-16T07:35:14.436Z,25.40
2022-11-16T07:36:14.432Z,27.20
2022-11-16T07:37:14.441Z,27.10
2022-11-16T07:38:18.028Z,23.70
2022-11-16T07:39:14.402Z,23.70
2022-11-16T07:40:14.385Z,23.50
2022-11-16T07:41:14.376Z,25.50
2022-11-16T07:42:14.379Z,23.90
2022-11-16T07:43:14.349Z,24.00
2022-11-16T07:44:14.340Z,28.00
2022-11-16T07:45:14.336Z,29.10
2022-11-16T07:47:15.330Z,24.60
2022-11-16T07:48:14.292Z,24.10
2022-11-16T07:49:14.289Z,26.30
2022-11-16T07:50:14.274Z,25.80
2022-11-16T07:51:14.263Z,23.90
2022-11-16T07:52:14.269Z,28.80
2022-11-16T07:53:14.240Z,23.10
2022-11-16T07:54:14.247Z,26.90
2022-11-16T07:55:14.221Z,25.70
2022-11-16T07:56:14.212Z,25.70
2022-11-16T07:57:14.214Z,22.80
2022-11-16T07:58:14.202Z,26.00
2022-11-16T07:59:14.181Z,22.40
2022-11-16T08:00:14.174Z,22.50
2022-11-16T08:01:14.155Z,18.90
2022-11-16T08:02:14.215Z,18.80
2022-11-16T08:03:14.149Z,20.90
2022-11-16T08:04:14.127Z,21.20
2022-11-16T08:05:14.111Z,21.80
2022-11-16T08:06:14.113Z,20.80
2022-11-16T08:07:14.153Z,22.50
2022-11-16T08:08:14.092Z,25.80
2022-11-16T08:09:14.077Z,23.10
2022-11-16T08:10:14.138Z,19.80
2022-11-16T08:11:14.048Z,19.50
2022-11-16T08:12:14.067Z,18.10
2022-11-16T08:13:14.029Z,20.40
2022-11-16T08:14:14.036Z,20.80
2022-11-16T08:15:14.011Z,25.30
2022-11-16T08:16:13.999Z,20.70
2022-11-16T08:17:14.009Z,27.00
2022-11-16T08:18:13.980Z,19.50
2022-11-16T08:19:13.972Z,22.40
2022-11-16T08:20:13.962Z,24.90
2022-11-16T08:21:13.972Z,23.20
2022-11-16T08:22:13.971Z,17.40
2022-11-16T08:23:13.931Z,19.50
2022-11-16T08:24:13.922Z,20.90
2022-11-16T08:25:13.933Z,17.70
2022-11-16T08:26:13.904Z,20.90
2022-11-16T08:27:13.901Z,17.20
2022-11-16T08:28:13.882Z,24.00
2022-11-16T08:29:13.862Z,24.10
2022-11-16T08:30:13.853Z,22.30
2022-11-16T08:31:13.843Z,19.70
2022-11-16T08:32:13.854Z,22.30
2022-11-16T08:33:13.853Z,19.60
2022-11-16T08:34:13.813Z,19.50
2022-11-16T08:35:13.797Z,22.40
2022-11-16T08:36:14.497Z,22.30
2022-11-16T08:37:13.794Z,21.10
2022-11-16T08:38:13.778Z,26.60
2022-11-16T08:39:13.764Z,20.60
2022-11-16T08:40:13.748Z,26.70
2022-11-16T08:41:13.736Z,22.10
2022-11-16T08:42:13.747Z,22.70
2022-11-16T08:43:13.709Z,23.00
2022-11-16T08:44:13.707Z,22.70
2022-11-16T08:45:13.688Z,18.90
2022-11-16T08:46:13.689Z,18.00
2022-11-16T08:47:13.686Z,20.90
2022-11-16T08:48:13.668Z,22.60
2022-11-16T08:49:13.648Z,20.50
2022-11-16T08:50:13.642Z,18.40
2022-11-16T08:51:18.608Z,21.10
2022-11-16T08:52:14.640Z,16.90
2022-11-16T08:53:13.611Z,18.30
2022-11-16T08:54:13.610Z,20.00
2022-11-16T08:55:13.584Z,18.50
2022-11-16T08:56:13.590Z,24.00
2022-11-16T08:57:13.579Z,21.00
2022-11-16T08:58:13.563Z,15.90
2022-11-16T08:59:13.551Z,20.40
2022-11-16T09:00:13.534Z,22.90
2022-11-16T09:01:13.572Z,16.70
2022-11-16T09:02:13.684Z,17.90
2022-11-16T09:03:13.497Z,19.80
2022-11-16T09:04:13.499Z,20.50
2022-11-16T09:05:13.483Z,18.30
2022-11-16T09:06:13.474Z,20.40
2022-11-16T09:07:13.544Z,21.30
2022-11-16T09:08:13.455Z,21.80
2022-11-16T09:09:13.434Z,17.80
2022-11-16T09:10:13.437Z,18.20
2022-11-16T09:11:13.416Z,19.20
2022-11-16T09:12:13.427Z,22.50
2022-11-16T09:13:13.393Z,20.80
2022-11-16T09:14:13.387Z,23.30
2022-11-16T09:15:13.368Z,18.20
2022-11-16T09:16:13.378Z,18.30
2022-11-16T09:17:13.829Z,20.80
2022-11-16T09:18:13.349Z,20.20
2022-11-16T09:19:13.337Z,19.20
2022-11-16T09:20:13.321Z,20.00
2022-11-16T09:21:13.301Z,21.60
2022-11-16T09:22:13.318Z,22.20
2022-11-16T09:23:13.299Z,18.90
2022-11-16T09:24:13.279Z,18.00
2022-11-16T09:25:13.268Z,23.20
2022-11-16T09:26:13.261Z,18.00
2022-11-16T09:27:13.269Z,21.90
2022-11-16T09:28:13.243Z,20.70
2022-11-16T09:29:13.223Z,19.60
2022-11-16T09:30:13.222Z,19.10
2022-11-16T09:31:13.202Z,30.10
2022-11-16T09:32:13.211Z,24.30
2022-11-16T09:33:13.186Z,22.30
2022-11-16T09:34:13.173Z,25.70
2022-11-16T09:35:13.154Z,19.20
2022-11-16T09:36:13.152Z,19.90
2022-11-16T09:37:13.154Z,22.20
2022-11-16T09:38:19.075Z,24.40
2022-11-16T09:39:29.992Z,20.70
2022-11-16T09:40:14.136Z,22.30
2022-11-16T09:41:13.097Z,20.00
2022-11-16T09:42:13.105Z,22.70
2022-11-16T09:43:13.077Z,19.90
2022-11-16T09:44:14.666Z,20.10
2022-11-16T09:45:13.116Z,19.00
2022-11-16T09:46:13.059Z,24.70
2022-11-16T09:47:13.052Z,17.10
2022-11-16T09:48:13.028Z,24.10
2022-11-16T09:49:17.206Z,19.90
2022-11-16T09:50:14.027Z,24.70
2022-11-16T09:51:12.990Z,18.10
2022-11-16T09:52:12.999Z,22.40
2022-11-16T09:53:12.970Z,22.40
2022-11-16T09:54:13.051Z,17.40
2022-11-16T09:55:16.002Z,19.50
2022-11-16T09:56:16.440Z,20.80
2022-11-16T09:57:13.944Z,20.00
2022-11-16T09:58:12.920Z,21.20
2022-11-16T09:59:17.982Z,21.60
2022-11-16T10:00:13.903Z,22.80
2022-11-16T10:01:12.941Z,21.20
2022-11-16T10:02:12.904Z,20.10
2022-11-16T10:03:12.864Z,21.50
2022-11-16T10:04:12.863Z,24.50
2022-11-16T10:05:12.846Z,26.70
2022-11-16T10:06:12.836Z,23.40
2022-11-16T10:07:12.876Z,25.80
2022-11-16T10:08:12.815Z,22.70
2022-11-16T10:09:12.804Z,24.60
2022-11-16T10:10:12.799Z,24.30
2022-11-16T10:11:12.856Z,24.60
2022-11-16T10:12:13.617Z,26.10
2022-11-16T10:13:12.786Z,22.10
2022-11-16T10:14:12.767Z,21.30
2022-11-16T10:15:12.762Z,21.80
2022-11-16T10:16:12.767Z,23.90
2022-11-16T10:17:12.741Z,22.40
2022-11-16T10:18:12.710Z,26.00
2022-11-16T10:19:12.699Z,24.40
2022-11-16T10:20:12.704Z,26.80
2022-11-16T10:21:12.686Z,21.30
2022-11-16T10:22:12.688Z,24.00
2022-11-16T10:23:12.651Z,23.80
2022-11-16T10:24:12.648Z,24.00
2022-11-16T10:25:12.638Z,27.30
2022-11-16T10:26:12.629Z,25.70
2022-11-16T10:27:14.024Z,24.60
2022-11-16T10:28:12.608Z,26.40
2022-11-16T10:29:12.592Z,21.90
2022-11-16T10:30:12.595Z,25.60
2022-11-16T10:31:12.578Z,22.70
2022-11-16T10:32:12.583Z,25.50
2022-11-16T10:33:12.553Z,26.60
2022-11-16T10:34:12.652Z,22.10
2022-11-16T10:35:12.730Z,26.70
2022-11-16T10:36:12.534Z,27.30
2022-11-16T10:37:12.524Z,27.80
2022-11-16T10:38:12.503Z,23.90
2022-11-16T10:39:12.484Z,23.80
2022-11-16T10:40:12.484Z,28.50
2022-11-16T10:41:12.474Z,25.90
2022-11-16T10:42:12.476Z,26.40
2022-11-16T10:43:12.455Z,22.90
2022-11-16T10:44:12.438Z,28.30
2022-11-16T10:45:12.424Z,21.90
2022-11-16T10:46:12.417Z,22.10
2022-11-16T10:47:12.425Z,24.40
2022-11-16T10:48:12.399Z,23.00
2022-11-16T10:49:12.387Z,24.70
2022-11-16T10:50:12.379Z,22.90
2022-11-16T10:51:12.365Z,26.50
2022-11-16T10:52:12.377Z,25.20
2022-11-16T10:53:12.349Z,23.70
2022-11-16T10:54:12.338Z,23.80
2022-11-16T10:55:12.321Z,23.20
2022-11-16T10:56:12.320Z,21.60
2022-11-16T10:57:12.331Z,24.40
2022-11-16T10:58:12.293Z,23.40
2022-11-16T10:59:12.288Z,23.10
2022-11-16T11:00:13.420Z,21.40
2022-11-16T11:01:12.386Z,20.30
2022-11-16T11:02:12.273Z,24.40
2022-11-16T11:03:12.232Z,22.50
2022-11-16T11:04:12.234Z,21.50
2022-11-16T11:05:12.212Z,22.50
2022-11-16T11:06:12.224Z,22.60
2022-11-16T11:07:12.274Z,19.90
2022-11-16T11:08:12.191Z,23.00
2022-11-16T11:09:12.172Z,20.90
2022-11-16T11:10:12.165Z,23.10
2022-11-16T11:11:12.146Z,23.40
2022-11-16T11:12:12.166Z,22.90
2022-11-16T11:13:12.130Z,26.00
2022-11-16T11:14:12.117Z,20.50
2022-11-16T11:15:12.120Z,20.20
2022-11-16T11:16:12.097Z,21.10
2022-11-16T11:17:12.097Z,20.10
2022-11-16T11:18:12.089Z,24.20
2022-11-16T11:19:12.060Z,19.00
2022-11-16T11:20:12.068Z,20.50
2022-11-16T11:21:12.040Z,21.90
2022-11-16T11:22:12.085Z,22.80
2022-11-16T11:23:12.033Z,19.70
2022-11-16T11:24:42.846Z,21.00
2022-11-16T11:25:13.000Z,18.30
2022-11-16T11:26:11.991Z,16.00
2022-11-16T11:27:11.984Z,15.70
2022-11-16T11:28:11.991Z,16.00
2022-11-16T11:29:11.951Z,18.40
2022-11-16T11:30:11.952Z,18.40
2022-11-16T11:31:11.933Z,19.90
2022-11-16T11:32:11.930Z,16.70
2022-11-16T11:33:11.931Z,19.90
2022-11-16T11:34:11.904Z,22.30
2022-11-16T11:35:11.893Z,16.90
2022-11-16T11:36:11.894Z,23.10
2022-11-16T11:37:11.873Z,19.30
2022-11-16T11:38:11.875Z,15.90
2022-11-16T11:39:12.021Z,20.40
2022-11-16T11:40:11.846Z,14.20
2022-11-16T11:41:11.836Z,15.70
2022-11-16T11:42:11.824Z,17.50
2022-11-16T11:43:14.952Z,15.20
2022-11-16T11:44:12.800Z,17.60
2022-11-16T11:45:11.789Z,15.90
2022-11-16T11:46:11.778Z,14.20
2022-11-16T11:47:55.805Z,17.50
2022-11-16T11:48:12.776Z,19.10
2022-11-16T11:49:11.745Z,17.60
2022-11-16T11:50:11.740Z,16.30
2022-11-16T11:51:11.720Z,19.90
2022-11-16T11:52:11.728Z,16.80
2022-11-16T11:53:11.718Z,18.00
2022-11-16T11:54:11.697Z,13.10
2022-11-16T11:55:11.680Z,15.20
2022-11-16T11:56:11.678Z,16.70
2022-11-16T11:57:11.659Z,12.20
2022-11-16T11:58:11.671Z,12.60
2022-11-16T11:59:11.640Z,13.10
2022-11-16T12:00:11.629Z,18.10
2022-11-16T12:01:11.630Z,14.70
2022-11-16T12:02:11.602Z,14.70
2022-11-16T12:03:11.644Z,11.70
2022-11-16T12:04:11.591Z,13.00
2022-11-16T12:05:11.573Z,15.00
2022-11-16T12:06:11.566Z,13.30
2022-11-16T12:07:11.571Z,26.40
2022-11-16T12:08:11.562Z,16.00
2022-11-16T12:09:11.535Z,8.20
2022-11-16T12:10:11.539Z,11.60
2022-11-16T12:11:11.517Z,11.00
2022-11-16T12:12:14.687Z,13.00
2022-11-16T12:13:11.506Z,10.90
2022-11-16T12:14:11.477Z,11.60
2022-11-16T12:15:11.478Z,11.90
2022-11-16T12:16:11.457Z,10.50
2022-11-16T12:17:11.457Z,7.60
2022-11-16T12:18:11.448Z,7.70
2022-11-16T12:19:11.437Z,9.50
2022-11-16T12:20:11.410Z,9.40
2022-11-16T12:21:11.409Z,8.40
2022-11-16T12:22:11.398Z,13.20
2022-11-16T12:23:11.409Z,8.50
2022-11-16T12:24:11.370Z,6.60
2022-11-16T12:25:11.367Z,11.70
2022-11-16T12:26:11.353Z,9.30
2022-11-16T12:27:11.342Z,7.60
2022-11-16T12:28:11.340Z,10.90
2022-11-16T12:29:11.321Z,11.00
2022-11-16T12:30:11.302Z,8.90
2022-11-16T12:31:11.301Z,7.20
2022-11-16T12:32:11.282Z,13.40
2022-11-16T12:33:11.291Z,7.30
2022-11-16T12:34:11.271Z,9.30
2022-11-16T12:35:11.256Z,8.30
2022-11-16T12:36:11.245Z,8.50
2022-11-16T12:37:11.243Z,9.80
2022-11-16T12:38:11.243Z,9.70
2022-11-16T12:39:11.214Z,10.80
2022-11-16T12:40:11.201Z,6.20
2022-11-16T12:41:11.195Z,6.80
2022-11-16T12:42:11.184Z,9.10
2022-11-16T12:43:11.193Z,9.30
2022-11-16T12:44:11.156Z,9.00
2022-11-16T12:45:11.154Z,7.50
2022-11-16T12:46:11.144Z,7.10
2022-11-16T12:47:11.147Z,6.90
2022-11-16T12:48:11.130Z,8.50
2022-11-16T12:49:11.116Z,10.10
2022-11-16T12:50:11.096Z,9.60
2022-11-16T12:51:11.093Z,9.20
2022-11-16T12:52:11.072Z,11.30
2022-11-16T12:53:11.089Z,11.50
2022-11-16T12:54:11.049Z,9.00